Time;durP1;ratioP1;P1;durP2;ratioP2;P2;SDS_P1;SDS_P2;PMS_P1;PMS_P2;Temp;Humidity;BMP_temperature;BMP_pressure;BME280_temperature;BME280_humidity;BME280_pressure;Samples;Min_cycle;Max_cycle;Signal;HPM_P1;HPM_P2
2022/05/18 00:00:09;;;;;;;7.43;4.68;;;17.30;99.90;;;;;;4919280;29;20107;-72
2022/05/18 00:02:35;;;;;;;7.45;5.70;;;17.30;99.90;;;;;;4919503;29;20035;-73
2022/05/18 00:05:00;;;;;;;5.47;3.72;;;17.30;99.90;;;;;;4918264;29;20036;-73
2022/05/18 00:07:26;;;;;;;4.68;3.60;;;17.30;99.90;;;;;;4919187;29;20031;-71
2022/05/18 00:09:53;;;;;;;5.38;4.20;;;17.20;99.90;;;;;;4917364;29;20036;-72
2022/05/18 00:12:19;;;;;;;4.80;3.60;;;17.20;99.90;;;;;;4919513;29;20039;-70
2022/05/18 00:14:45;;;;;;;6.57;3.80;;;17.20;99.90;;;;;;4917976;29;20036;-70
2022/05/18 00:17:11;;;;;;;7.25;3.70;;;17.20;99.90;;;;;;4919618;29;20079;-69
2022/05/18 00:19:37;;;;;;;5.90;3.58;;;17.20;99.90;;;;;;4919088;29;20469;-71
2022/05/18 00:22:04;;;;;;;3.88;3.47;;;17.30;99.90;;;;;;4919280;29;20107;-69
2022/05/18 00:24:30;;;;;;;8.27;3.88;;;17.30;99.90;;;;;;4919205;29;20484;-69
2022/05/18 00:26:56;;;;;;;6.78;3.72;;;17.30;99.90;;;;;;4919167;29;20099;-69
2022/05/18 00:29:22;;;;;;;3.97;3.58;;;17.40;99.90;;;;;;4918923;29;20378;-69
2022/05/18 00:31:49;;;;;;;6.00;3.58;;;17.40;99.90;;;;;;4917862;29;20032;-70
2022/05/18 00:34:16;;;;;;;4.35;3.47;;;17.40;99.90;;;;;;4917529;29;20091;-67
2022/05/18 00:36:42;;;;;;;6.13;3.95;;;17.40;99.90;;;;;;4918954;29;20504;-70
2022/05/18 00:39:09;;;;;;;4.00;3.60;;;17.40;99.90;;;;;;4918893;29;20100;-70
2022/05/18 00:41:37;;;;;;;4.20;3.63;;;17.30;99.90;;;;;;4919243;29;20028;-70
2022/05/18 00:44:04;;;;;;;4.25;3.60;;;17.30;99.90;;;;;;4918909;29;20036;-69
2022/05/18 00:46:30;;;;;;;4.07;3.63;;;17.30;99.90;;;;;;4918879;29;20028;-71
2022/05/18 00:48:56;;;;;;;4.47;4.07;;;17.30;99.90;;;;;;4918815;29;20038;-72
2022/05/18 00:51:42;;;;;;;4.95;4.38;;;17.20;99.90;;;;;;4918756;29;20024;-70
2022/05/18 00:54:27;;;;;;;4.97;4.25;;;17.20;99.90;;;;;;4918767;29;20050;-70
2022/05/18 00:57:10;;;;;;;5.35;3.38;;;17.30;99.90;;;;;;4918706;29;20062;-70
2022/05/18 00:59:58;;;;;;;7.55;4.50;;;17.30;99.90;;;;;;4918331;29;20075;-69
2022/05/18 01:02:29;;;;;;;6.63;4.03;;;17.30;99.90;;;;;;4918311;29;20793;-70
2022/05/18 01:05:00;;;;;;;4.85;3.85;;;17.30;99.90;;;;;;4917251;29;20035;-69
2022/05/18 01:07:36;;;;;;;9.10;4.38;;;17.30;99.90;;;;;;4917183;29;20046;-70
2022/05/18 01:10:04;;;;;;;7.13;4.10;;;17.30;99.90;;;;;;4918465;29;20028;-71
2022/05/18 01:12:31;;;;;;;5.60;4.07;;;17.40;99.90;;;;;;4917154;29;20458;-71
2022/05/18 01:15:02;;;;;;;5.25;3.78;;;17.30;99.90;;;;;;4916937;29;20036;-69
2022/05/18 01:17:33;;;;;;;5.43;4.03;;;17.30;99.90;;;;;;4918338;29;20035;-71
2022/05/18 01:20:02;;;;;;;7.18;4.88;;;17.30;99.90;;;;;;4916543;29;20032;-72
2022/05/18 01:22:53;;;;;;;5.00;4.50;;;17.30;99.90;;;;;;4917970;29;20036;-74
2022/05/18 01:25:31;;;;;;;6.13;4.50;;;17.30;99.90;;;;;;4918148;29;20040;-74
2022/05/18 01:27:59;;;;;;;8.82;4.85;;;17.30;99.90;;;;;;4918296;29;20035;-75
2022/05/18 01:30:26;;;;;;;9.32;5.15;;;17.20;99.90;;;;;;4918056;29;20028;-73
2022/05/18 01:32:54;;;;;;;5.80;4.70;;;17.20;99.90;;;;;;4918333;29;20055;-74
2022/05/18 01:35:27;;;;;;;7.68;4.68;;;17.20;99.90;;;;;;4916339;29;20052;-74
2022/05/18 01:37:57;;;;;;;7.47;5.00;;;17.20;99.90;;;;;;4917982;29;20170;-75
2022/05/18 01:41:07;;;;;;;6.38;4.80;;;17.10;99.90;;;;;;4916606;29;20036;-73
2022/05/18 01:43:49;;;;;;;6.25;4.35;;;17.10;99.90;;;;;;4912084;29;20107;-72
2022/05/18 01:46:17;;;;;;;7.25;4.57;;;17.10;99.90;;;;;;4917814;29;20111;-73
2022/05/18 01:48:46;;;;;;;8.35;4.97;;;17.10;99.90;;;;;;4916458;29;20040;-71
2022/05/18 01:51:23;;;;;;;6.20;5.25;;;17.10;99.90;;;;;;4917688;29;20047;-69
2022/05/18 01:53:48;;;;;;;5.63;5.13;;;17.00;99.90;;;;;;4917729;29;20063;-69
2022/05/18 01:56:14;;;;;;;7.05;5.65;;;17.00;99.90;;;;;;4916191;29;20434;-70
2022/05/18 01:58:40;;;;;;;6.55;5.07;;;17.00;99.90;;;;;;4917574;29;20031;-70
2022/05/18 02:01:06;;;;;;;6.28;4.65;;;17.00;99.90;;;;;;4916221;29;20123;-70
2022/05/18 02:03:32;;;;;;;7.07;5.22;;;17.10;99.90;;;;;;4916199;29;20498;-70
2022/05/18 02:05:58;;;;;;;5.60;5.10;;;17.20;99.90;;;;;;4916132;29;20043;-70
2022/05/18 02:08:24;;;;;;;9.88;5.60;;;17.20;99.90;;;;;;4915795;29;20032;-71
2022/05/18 02:10:49;;;;;;;6.55;5.35;;;17.30;99.90;;;;;;4917363;29;20036;-70
2022/05/18 02:13:16;;;;;;;8.00;5.82;;;17.30;99.90;;;;;;4917549;29;20032;-71
2022/05/18 02:15:42;;;;;;;13.35;5.80;;;17.30;99.90;;;;;;4917196;29;20043;-70
2022/05/18 02:18:08;;;;;;;7.20;5.35;;;17.30;99.90;;;;;;4917240;29;20366;-71
2022/05/18 02:20:35;;;;;;;8.30;5.95;;;17.30;99.90;;;;;;4916967;29;20385;-72
2022/05/18 02:23:02;;;;;;;5.55;5.05;;;17.30;99.90;;;;;;4917232;29;20071;-70
2022/05/18 02:25:28;;;;;;;9.63;5.82;;;17.30;99.90;;;;;;4917384;29;20090;-71
2022/05/18 02:27:55;;;;;;;6.70;5.47;;;17.30;99.90;;;;;;4915835;29;20036;-70
2022/05/18 02:30:21;;;;;;;6.60;5.47;;;17.30;99.90;;;;;;4917151;29;20047;-71
2022/05/18 02:32:47;;;;;;;10.70;6.57;;;17.30;99.90;;;;;;4915111;29;20474;-71
2022/05/18 02:35:13;;;;;;;6.60;5.97;;;17.30;99.90;;;;;;4915288;29;20055;-70
2022/05/18 02:37:39;;;;;;;10.93;6.30;;;17.30;99.90;;;;;;4916997;29;20040;-70
2022/05/18 02:40:07;;;;;;;6.85;6.15;;;17.30;99.90;;;;;;4915645;29;20035;-70
2022/05/18 02:42:33;;;;;;;10.38;7.30;;;17.30;99.90;;;;;;4916996;29;20028;-71
2022/05/18 02:44:59;;;;;;;11.65;6.90;;;17.30;99.90;;;;;;4916889;29;20038;-72
2022/05/18 02:47:25;;;;;;;10.05;6.90;;;17.30;99.90;;;;;;4916865;29;20393;-74
2022/05/18 02:49:51;;;;;;;9.15;7.43;;;17.30;99.90;;;;;;4915574;29;20033;-71
2022/05/18 02:52:18;;;;;;;10.45;7.40;;;17.30;99.90;;;;;;4915373;29;20118;-73
2022/05/18 02:57:28;;;;;;;10.35;8.43;;;17.30;99.90;;;;;;4916583;29;20104;-72
2022/05/18 02:59:54;;;;;;;10.02;7.68;;;17.30;99.90;;;;;;4915478;29;20389;-74
2022/05/18 03:02:20;;;;;;;8.77;7.88;;;17.30;99.90;;;;;;4915441;29;20028;-73
2022/05/18 03:04:45;;;;;;;11.10;9.15;;;17.40;99.90;;;;;;4915471;29;20032;-74
2022/05/18 03:07:11;;;;;;;10.50;8.68;;;17.40;99.90;;;;;;4915414;29;20051;-72
2022/05/18 03:09:37;;;;;;;10.95;9.32;;;17.40;99.90;;;;;;4916681;29;20052;-72
2022/05/18 03:12:04;;;;;;;11.55;9.25;;;17.40;99.90;;;;;;4916925;29;20082;-73
2022/05/18 03:14:30;;;;;;;12.18;9.70;;;17.50;99.90;;;;;;4915033;29;20028;-73
2022/05/18 03:16:56;;;;;;;13.20;10.45;;;17.50;99.90;;;;;;4916643;29;20032;-72
2022/05/18 03:19:23;;;;;;;12.10;10.90;;;17.50;99.90;;;;;;4915547;29;20024;-74
2022/05/18 03:24:53;;;;;;;17.65;12.18;;;;;;;;;;4876629;29;20033;-70
2022/05/18 03:27:20;;;;;;;14.13;11.57;;;;;;;;;;4876715;29;20577;-73
2022/05/18 03:29:46;;;;;;;16.60;12.82;;;;;;;;;;4895359;29;20515;-71
2022/05/18 03:32:12;;;;;;;17.50;12.10;;;17.50;99.90;;;;;;4916498;29;20067;-74
2022/05/18 03:34:39;;;;;;;15.75;11.35;;;;;;;;;;4914774;29;20470;-72
2022/05/18 03:37:04;;;;;;;18.85;11.65;;;17.80;99.90;;;;;;4916504;29;20024;-72
2022/05/18 03:39:30;;;;;;;19.02;11.77;;;17.80;99.90;;;;;;4916192;29;20083;-73
2022/05/18 03:41:57;;;;;;;18.88;10.52;;;;;;;;;;4916204;29;20032;-72
2022/05/18 03:44:23;;;;;;;15.05;9.32;;;;;;;;;;4918349;29;20028;-72
2022/05/18 03:46:49;;;;;;;11.65;8.73;;;17.80;99.90;;;;;;4919927;29;20036;-73
2022/05/18 03:49:15;;;;;;;14.15;8.90;;;17.70;99.90;;;;;;4919849;29;20088;-71
2022/05/18 03:51:41;;;;;;;11.05;8.65;;;17.60;99.90;;;;;;4919841;29;20374;-71
2022/05/18 03:54:07;;;;;;;14.90;9.30;;;17.50;99.90;;;;;;4918247;29;20481;-72
2022/05/18 03:56:33;;;;;;;12.00;6.95;;;17.30;99.90;;;;;;4918336;29;20040;-75
2022/05/18 03:59:00;;;;;;;9.98;6.38;;;17.30;99.90;;;;;;4919751;29;20067;-73
2022/05/18 04:01:27;;;;;;;10.93;7.50;;;17.20;99.90;;;;;;4919617;29;20024;-73
2022/05/18 04:03:53;;;;;;;11.07;7.80;;;17.30;99.90;;;;;;4918356;29;20036;-74
2022/05/18 04:06:20;;;;;;;12.73;8.00;;;17.20;99.90;;;;;;4918239;29;20060;-74
2022/05/18 04:08:46;;;;;;;12.15;8.23;;;17.20;99.90;;;;;;4919250;29;20435;-75
2022/05/18 04:11:13;;;;;;;19.15;8.27;;;17.20;99.90;;;;;;4919498;29;20036;-76
2022/05/18 04:13:39;;;;;;;14.80;8.85;;;17.10;99.90;;;;;;4918181;29;20036;-74
2022/05/18 04:16:05;;;;;;;16.20;8.07;;;17.20;99.90;;;;;;4919300;29;20039;-73
2022/05/18 04:18:32;;;;;;;13.48;7.45;;;17.20;99.90;;;;;;4919621;29;20363;-72
2022/05/18 04:20:59;;;;;;;9.20;7.22;;;17.20;99.90;;;;;;4919284;29;20077;-73
2022/05/18 04:23:25;;;;;;;11.30;6.43;;;17.20;99.90;;;;;;4918004;29;20032;-72
2022/05/18 04:25:52;;;;;;;11.65;6.57;;;17.20;99.90;;;;;;4919137;29;20075;-71
2022/05/18 04:28:18;;;;;;;10.63;6.60;;;17.10;99.90;;;;;;4919205;29;20112;-70
2022/05/18 04:30:46;;;;;;;12.45;6.40;;;17.10;99.90;;;;;;4919167;29;20028;-68
2022/05/18 04:33:18;;;;;;;12.68;6.90;;;17.20;99.90;;;;;;4917708;29;20040;-69
2022/05/18 04:35:44;;;;;;;10.73;7.10;;;17.10;99.90;;;;;;4919034;29;20501;-68
2022/05/18 04:38:10;;;;;;;8.98;6.65;;;17.10;99.90;;;;;;4918969;29;20036;-69
2022/05/18 04:40:37;;;;;;;9.10;6.20;;;17.10;99.90;;;;;;4918959;29;20036;-71
2022/05/18 04:43:03;;;;;;;8.82;5.88;;;17.10;99.90;;;;;;4918853;29;20032;-69
2022/05/18 04:45:29;;;;;;;7.53;6.07;;;17.10;99.90;;;;;;4918915;29;20092;-70
2022/05/18 04:47:55;;;;;;;9.93;6.22;;;17.10;99.90;;;;;;4917515;29;20035;-67
2022/05/18 04:50:21;;;;;;;12.20;7.30;;;17.20;99.90;;;;;;4918850;29;20032;-65
2022/05/18 04:52:48;;;;;;;9.32;7.35;;;17.20;99.90;;;;;;4917426;29;20466;-69
2022/05/18 04:55:14;;;;;;;8.35;7.53;;;17.30;99.90;;;;;;4917911;29;20040;-71
2022/05/18 04:57:40;;;;;;;12.23;8.50;;;17.30;99.90;;;;;;4917290;29;20035;-71
2022/05/18 05:00:10;;;;;;;12.52;8.27;;;17.40;99.90;;;;;;4917215;29;20385;-68
2022/05/18 05:02:36;;;;;;;10.98;7.53;;;17.40;99.90;;;;;;4914980;29;20029;-67
2022/05/18 05:05:05;;;;;;;11.85;7.45;;;17.40;99.90;;;;;;4917202;29;20040;-69
2022/05/18 05:07:31;;;;;;;12.23;7.78;;;17.50;99.90;;;;;;4917867;29;20405;-69
2022/05/18 05:09:57;;;;;;;17.15;8.07;;;17.60;99.90;;;;;;4916628;29;20041;-66
2022/05/18 05:12:25;;;;;;;13.48;7.68;;;17.70;99.90;;;;;;4930403;29;20036;-66
2022/05/18 05:14:51;;;;;;;8.45;6.20;;;;;;;;;;4923096;29;20024;-70
2022/05/18 05:17:17;;;;;;;8.40;5.65;;;17.70;99.90;;;;;;4918129;29;20477;-68
2022/05/18 05:19:43;;;;;;;9.80;5.53;;;;;;;;;;4917337;29;20047;-71
2022/05/18 05:22:09;;;;;;;7.63;5.13;;;17.90;99.90;;;;;;4927619;29;20031;-69
2022/05/18 05:24:35;;;;;;;7.72;5.88;;;18.10;99.90;;;;;;4918060;29;20028;-70
2022/05/18 05:27:01;;;;;;;13.07;5.45;;;18.10;99.90;;;;;;4917793;29;20028;-71
2022/05/18 05:29:27;;;;;;;7.70;4.85;;;18.10;99.90;;;;;;4917824;29;20035;-68
2022/05/18 05:31:53;;;;;;;13.10;6.07;;;18.20;99.90;;;;;;4918081;29;20036;-70
2022/05/18 05:34:19;;;;;;;8.90;5.35;;;18.10;99.90;;;;;;4916009;29;20456;-71
2022/05/18 05:36:45;;;;;;;5.82;4.32;;;;;;;;;;4917695;29;20040;-68
2022/05/18 05:39:11;;;;;;;7.72;4.47;;;;;;;;;;4917723;29;20031;-67
2022/05/18 05:41:37;;;;;;;7.13;3.72;;;;;;;;;;4917311;29;20091;-66
2022/05/18 05:44:04;;;;;;;10.35;3.58;;;;;;;;;;4917298;29;20040;-68
2022/05/18 05:46:30;;;;;;;10.23;4.28;;;;;;;;;;4917303;29;20497;-69
2022/05/18 05:48:57;;;;;;;8.07;3.50;;;;;;;;;;4917580;29;20107;-69
2022/05/18 05:51:23;;;;;;;8.35;4.63;;;;;;;;;;4917548;29;20039;-70
2022/05/18 05:53:51;;;;;;;5.25;3.20;;;;;;;;;;4916116;29;20067;-65
2022/05/18 05:56:18;;;;;;;5.25;2.80;;;;;;;;;;4916137;29;20041;-65
2022/05/18 05:58:47;;;;;;;6.72;3.13;;;;;;;;;;4917426;29;20020;-64
2022/05/18 06:01:14;;;;;;;8.48;2.72;;;18.20;99.90;;;;;;4917397;29;20056;-64
2022/05/18 06:03:41;;;;;;;8.40;2.95;;;18.60;99.90;;;;;;4917247;29;20039;-64
2022/05/18 06:06:08;;;;;;;4.03;2.85;;;18.60;99.90;;;;;;4919695;29;20036;-68
2022/05/18 06:08:35;;;;;;;7.38;3.35;;;18.60;99.90;;;;;;4919694;29;20491;-66
2022/05/18 06:11:01;;;;;;;4.18;2.58;;;18.50;99.90;;;;;;4915967;29;20032;-63
2022/05/18 06:13:28;;;;;;;6.10;3.08;;;18.50;99.90;;;;;;4917227;29;20111;-65
2022/05/18 06:15:55;;;;;;;12.45;3.05;;;18.60;99.90;;;;;;4916769;29;20036;-64
2022/05/18 06:18:21;;;;;;;6.30;3.00;;;18.70;99.90;;;;;;4915661;29;20382;-67
2022/05/18 06:20:47;;;;;;;12.30;3.13;;;18.70;99.90;;;;;;4917057;29;20039;-72
2022/05/18 06:23:14;;;;;;;4.45;2.58;;;;;;;;;;4917106;29;20047;-68
2022/05/18 06:25:40;;;;;;;4.32;1.85;;;;;;;;;;4917131;29;20032;-69
2022/05/18 06:28:07;;;;;;;6.47;2.35;;;;;;;;;;4915426;29;20103;-68
2022/05/18 06:30:33;;;;;;;2.97;2.42;;;;;;;;;;4916772;29;20032;-70
2022/05/18 06:32:59;;;;;;;4.88;2.20;;;;;;;;;;4916973;29;20028;-70
2022/05/18 06:35:25;;;;;;;4.47;2.60;;;;;;;;;;4916983;29;20108;-72
2022/05/18 06:37:51;;;;;;;5.80;2.30;;;18.80;99.90;;;;;;4916847;29;20032;-70
2022/05/18 06:40:18;;;;;;;5.50;2.10;;;19.20;99.90;;;;;;4915500;29;20466;-68
2022/05/18 06:42:45;;;;;;;3.92;2.05;;;19.00;99.90;;;;;;4916832;29;20035;-68
2022/05/18 06:45:13;;;;;;;5.35;2.00;;;18.80;99.90;;;;;;4914124;29;20024;-70
2022/05/18 06:47:39;;;;;;;9.48;2.35;;;18.70;99.90;;;;;;4915841;29;20036;-72
2022/05/18 06:50:08;;;;;;;3.97;1.88;;;18.60;99.90;;;;;;4914467;29;20123;-72
2022/05/18 06:52:34;;;;;;;9.95;2.25;;;18.50;99.90;;;;;;4916197;29;20032;-69
2022/05/18 06:55:00;;;;;;;6.10;2.63;;;18.60;99.90;;;;;;4915154;29;20044;-68
2022/05/18 06:57:26;;;;;;;10.35;2.30;;;18.70;99.90;;;;;;4916184;29;20437;-74
2022/05/18 06:59:52;;;;;;;4.93;2.35;;;;;;;;;;4915248;29;20028;-70
2022/05/18 07:02:18;;;;;;;6.75;2.30;;;18.80;99.90;;;;;;4916626;29;20504;-69
2022/05/18 07:04:44;;;;;;;5.55;2.13;;;19.20;99.90;;;;;;4916576;29;20164;-71
2022/05/18 07:07:10;;;;;;;5.25;3.13;;;19.30;99.90;;;;;;4914801;29;20115;-71
2022/05/18 07:09:36;;;;;;;11.43;2.97;;;19.30;99.90;;;;;;4913122;29;20024;-71
2022/05/18 07:12:02;;;;;;;7.47;1.88;;;;;;;;;;4915497;29;20035;-71
2022/05/18 07:14:29;;;;;;;10.02;4.15;;;;;;;;;;4914883;29;20052;-78
2022/05/18 07:16:56;;;;;;;11.40;3.45;;;19.20;99.90;;;;;;4915003;29;20035;-72
2022/05/18 07:19:23;;;;;;;8.80;2.47;;;19.60;99.90;;;;;;4923507;29;20024;-71
2022/05/18 07:21:50;;;;;;;9.63;2.97;;;19.50;99.90;;;;;;4920426;29;20035;-71
2022/05/18 07:24:16;;;;;;;9.30;3.75;;;19.60;99.90;;;;;;4920381;29;20094;-72
2022/05/18 07:26:44;;;;;;;13.18;3.42;;;19.70;99.90;;;;;;4919266;29;20035;-69
2022/05/18 07:29:13;;;;;;;8.43;2.65;;;19.70;99.90;;;;;;4920034;29;20035;-69
2022/05/18 07:34:23;;;;;;;9.65;3.60;;;;;;;;;;4919359;29;20067;-69
2022/05/18 07:36:53;;;;;;;7.03;2.80;;;;;;;;;;4917943;29;20507;-69
2022/05/18 07:39:19;;;;;;;6.70;1.92;;;;;;;;;;4930973;29;20015;-68
2022/05/18 07:41:45;;;;;;;7.00;2.03;;;;;;;;;;4939058;29;20024;-69
2022/05/18 07:44:12;;;;;;;4.20;2.08;;;19.70;99.90;;;;;;4938291;29;20075;-69
2022/05/18 07:46:38;;;;;;;8.02;2.83;;;;;;;;;;4937950;29;20111;-68
2022/05/18 07:49:05;;;;;;;7.28;2.55;;;20.20;99.90;;;;;;4938695;29;20059;-68
2022/05/18 07:51:31;;;;;;;15.02;2.58;;;;;;;;;;4938695;29;20083;-68
2022/05/18 07:53:57;;;;;;;5.70;2.28;;;20.30;99.90;;;;;;4937072;29;20031;-69
2022/05/18 07:56:23;;;;;;;8.00;3.58;;;;;;;;;;4938491;29;20051;-68
2022/05/18 07:58:49;;;;;;;5.32;2.78;;;20.50;99.90;;;;;;4936992;29;20484;-68
2022/05/18 08:01:15;;;;;;;6.18;2.55;;;;;;;;;;4937256;29;20038;-68
2022/05/18 08:03:42;;;;;;;4.30;1.80;;;;;;;;;;4938506;29;20023;-68
2022/05/18 08:06:08;;;;;;;3.15;1.75;;;;;;;;;;4937096;29;20035;-68
2022/05/18 08:08:34;;;;;;;4.70;1.85;;;;;;;;;;4938378;29;20056;-68
2022/05/18 08:16:31;;;;;;;7.28;2.70;;;;;;;;;;4937854;29;20082;-68
2022/05/18 08:18:57;;;;;;;5.68;1.52;;;21.40;99.80;;;;;;4938000;29;20026;-68
2022/05/18 08:21:23;;;;;;;7.43;1.98;;;;;;;;;;4938209;29;20558;-69
2022/05/18 08:23:49;;;;;;;10.57;1.95;;;;;;;;;;4937843;29;20429;-69
2022/05/18 08:26:16;;;;;;;8.95;2.15;;;22.20;95.80;;;;;;4936767;29;20063;-68
2022/05/18 08:28:42;;;;;;;4.43;1.85;;;22.30;93.80;;;;;;4937522;29;20032;-69
2022/05/18 08:31:08;;;;;;;3.97;1.50;;;22.60;96.50;;;;;;4937276;29;20024;-67
2022/05/18 08:33:34;;;;;;;7.32;1.35;;;22.90;94.70;;;;;;4936316;29;20048;-69
2022/05/18 08:36:03;;;;;;;5.93;1.50;;;23.10;94.20;;;;;;4919968;29;20044;-72
2022/05/18 08:38:29;;;;;;;6.90;2.13;;;23.10;94.20;;;;;;4917033;29;20115;-69
2022/05/18 08:40:58;;;;;;;6.28;1.60;;;23.10;94.00;;;;;;4918639;29;20111;-72
2022/05/18 08:43:34;;;;;;;4.20;1.92;;;22.90;90.20;;;;;;4918931;29;20035;-71
2022/05/18 08:46:04;;;;;;;1.88;0.95;;;;;;;;;;4918594;29;20115;-70
2022/05/18 08:48:44;;;;;;;5.20;1.13;;;22.70;90.50;;;;;;4918603;29;20080;-69
2022/05/18 08:51:49;;;;;;;7.85;1.80;;;22.70;92.00;;;;;;4917381;29;20084;-68
2022/05/18 08:54:29;;;;;;;4.93;1.40;;;22.70;91.80;;;;;;4909841;29;20584;-68
2022/05/18 08:56:58;;;;;;;3.10;1.35;;;22.80;92.50;;;;;;4918199;29;20055;-68
2022/05/18 08:59:33;;;;;;;5.90;1.50;;;22.90;88.20;;;;;;4918124;29;20063;-69
2022/05/18 09:02:03;;;;;;;8.10;1.63;;;23.00;88.90;;;;;;4914807;29;20104;-70
2022/05/18 09:04:49;;;;;;;7.40;1.35;;;;;;;;;;4917873;29;20083;-70
2022/05/18 09:07:19;;;;;;;5.07;1.60;;;23.00;88.70;;;;;;4909811;29;20032;-70
2022/05/18 09:12:39;;;;;;;11.70;1.30;;;23.30;86.40;;;;;;4918148;29;20039;-69
2022/05/18 09:15:07;;;;;;;5.93;1.25;;;;;;;;;;4917831;29;20036;-68
2022/05/18 09:17:52;;;;;;;3.28;1.33;;;23.70;84.50;;;;;;4916552;29;20063;-67
2022/05/18 09:20:38;;;;;;;7.07;1.88;;;24.00;90.10;;;;;;4917962;29;20032;-65
2022/05/18 09:23:22;;;;;;;6.03;1.50;;;24.00;83.20;;;;;;4917843;29;20043;-66
2022/05/18 09:25:57;;;;;;;5.60;1.25;;;24.20;83.80;;;;;;4918125;29;20071;-67
2022/05/18 09:29:05;;;;;;;12.45;1.38;;;24.10;81.50;;;;;;4916632;29;20090;-66
2022/05/18 09:32:09;;;;;;;4.38;1.08;;;24.30;78.20;;;;;;4916099;29;20036;-65
2022/05/18 09:35:08;;;;;;;1.40;1.20;;;24.50;78.80;;;;;;4917362;29;20048;-68
2022/05/18 09:37:45;;;;;;;6.13;1.35;;;24.70;78.90;;;;;;4917468;29;20040;-69
2022/05/18 09:40:25;;;;;;;7.28;2.35;;;24.70;77.30;;;;;;4915869;29;20149;-70
2022/05/18 09:43:18;;;;;;;5.05;1.92;;;25.00;80.10;;;;;;4917593;29;20031;-70
2022/05/18 09:45:47;;;;;;;5.15;1.48;;;25.30;79.80;;;;;;4914569;29;20043;-68
2022/05/18 09:48:15;;;;;;;8.60;1.52;;;25.40;78.90;;;;;;4916183;29;20489;-71
2022/05/18 09:50:45;;;;;;;7.03;1.98;;;25.40;74.40;;;;;;4914748;29;20481;-69
2022/05/18 09:53:11;;;;;;;2.40;1.13;;;25.60;72.90;;;;;;4915312;29;20032;-70
2022/05/18 09:55:38;;;;;;;5.97;1.20;;;25.70;74.00;;;;;;4917084;29;20438;-67
2022/05/18 09:58:14;;;;;;;9.43;2.00;;;25.50;73.00;;;;;;4916810;29;20032;-65
2022/05/18 10:00:40;;;;;;;10.13;1.60;;;25.60;74.20;;;;;;4916227;29;20366;-67
2022/05/18 10:08:53;;;;;;;5.90;1.63;;;26.00;72.80;;;;;;4916828;29;20406;-71
2022/05/18 10:11:32;;;;;;;5.43;1.45;;;26.10;71.40;;;;;;4915846;29;20079;-66
2022/05/18 10:14:14;;;;;;;7.28;1.60;;;26.10;75.00;;;;;;4916793;29;20385;-67
2022/05/18 10:16:58;;;;;;;8.88;1.38;;;26.10;66.90;;;;;;4916823;29;20127;-71
2022/05/18 10:19:49;;;;;;;4.97;1.50;;;26.10;66.30;;;;;;4916664;29;20028;-66
2022/05/18 10:22:28;;;;;;;8.75;1.48;;;26.30;70.40;;;;;;4916895;29;20039;-67
2022/05/18 10:25:09;;;;;;;4.28;1.60;;;26.30;70.80;;;;;;4916762;29;20032;-66
2022/05/18 10:27:37;;;;;;;7.07;1.70;;;26.30;68.80;;;;;;4916472;29;20084;-66
2022/05/18 10:30:09;;;;;;;5.25;1.45;;;26.20;70.40;;;;;;4916711;29;20169;-69
2022/05/18 10:32:51;;;;;;;9.40;1.80;;;26.80;67.40;;;;;;4915563;29;20177;-71
2022/05/18 10:35:54;;;;;;;5.25;1.52;;;27.60;65.40;;;;;;4916541;29;20056;-71
2022/05/18 10:38:19;;;;;;;4.10;1.83;;;27.20;66.70;;;;;;4909402;29;20036;-71
2022/05/18 10:40:45;;;;;;;6.15;1.65;;;27.80;64.20;;;;;;4916295;29;20389;-71
2022/05/18 10:43:23;;;;;;;9.20;1.40;;;28.20;71.20;;;;;;4915407;29;20389;-74
2022/05/18 10:46:02;;;;;;;3.58;1.02;;;28.60;62.60;;;;;;4915349;29;20044;-69
2022/05/18 10:48:30;;;;;;;8.95;1.50;;;29.00;62.00;;;;;;4914753;29;20024;-67
2022/05/18 10:51:14;;;;;;;13.23;2.00;;;29.60;58.90;;;;;;4916351;29;20059;-70
2022/05/18 10:53:43;;;;;;;4.43;1.25;;;30.50;58.60;;;;;;4915658;29;20429;-70
2022/05/18 10:56:12;;;;;;;7.70;1.90;;;31.80;54.50;;;;;;4914181;29;20465;-71
2022/05/18 10:59:09;;;;;;;6.85;1.30;;;31.80;54.20;;;;;;4916702;29;20028;-72
2022/05/18 11:01:48;;;;;;;8.82;1.60;;;31.90;57.60;;;;;;4916597;29;20024;-71
2022/05/18 11:04:26;;;;;;;8.00;1.30;;;31.90;53.30;;;;;;4916915;29;20047;-71
2022/05/18 11:06:53;;;;;;;3.13;1.27;;;31.70;55.30;;;;;;4916619;29;20469;-71
2022/05/18 11:09:31;;;;;;;8.07;1.48;;;32.20;53.20;;;;;;4916886;29;20028;-71
2022/05/18 11:12:23;;;;;;;8.98;1.30;;;;;;;;;;4916474;29;20027;-71
2022/05/18 11:14:59;;;;;;;11.05;2.08;;;;;;;;;;4900564;29;20040;-71
2022/05/18 11:17:53;;;;;;;10.95;1.60;;;33.30;51.90;;;;;;4916583;29;20035;-72
2022/05/18 11:20:51;;;;;;;9.77;1.42;;;33.70;50.70;;;;;;4916599;29;20055;-71
2022/05/18 11:23:34;;;;;;;6.20;1.20;;;34.40;49.30;;;;;;4916268;29;20035;-72
2022/05/18 11:26:39;;;;;;;14.63;1.65;;;34.80;49.60;;;;;;4916543;29;20046;-71
2022/05/18 11:29:14;;;;;;;3.97;1.50;;;;;;;;;;4914371;29;20190;-72
2022/05/18 11:31:58;;;;;;;7.20;1.10;;;34.30;46.50;;;;;;4916419;29;20024;-73
2022/05/18 11:35:01;;;;;;;4.45;1.10;;;34.10;46.90;;;;;;4916029;29;20115;-71
2022/05/18 11:37:32;;;;;;;5.47;1.10;;;32.10;47.50;;;;;;4916441;29;20516;-72
2022/05/18 11:40:36;;;;;;;10.18;1.50;;;32.00;48.60;;;;;;4916483;29;20532;-71
2022/05/18 11:43:33;;;;;;;5.75;1.60;;;31.10;49.50;;;;;;4916401;29;20160;-72
2022/05/18 11:46:05;;;;;;;6.68;1.75;;;32.70;49.00;;;;;;4897528;29;20051;-72
2022/05/18 11:49:15;;;;;;;2.80;1.20;;;33.20;48.30;;;;;;4916542;29;20028;-72
2022/05/18 11:51:57;;;;;;;23.83;2.47;;;34.80;47.00;;;;;;4897450;29;20095;-73
2022/05/18 11:54:41;;;;;;;4.63;1.20;;;35.20;43.90;;;;;;4916364;29;20032;-73
2022/05/18 11:57:41;;;;;;;8.32;1.20;;;35.20;43.90;;;;;;4914863;29;20036;-72
2022/05/18 12:00:33;;;;;;;13.43;1.77;;;34.70;43.40;;;;;;4916294;29;20025;-73
2022/05/18 12:03:36;;;;;;;5.05;1.30;;;34.70;65.60;;;;;;4916286;29;20032;-72
2022/05/18 12:06:08;;;;;;;5.30;1.10;;;35.80;42.80;;;;;;4919565;29;20036;-71
2022/05/18 12:08:49;;;;;;;6.07;1.35;;;35.90;43.80;;;;;;4918287;29;20039;-72
2022/05/18 12:11:44;;;;;;;12.13;1.13;;;36.50;44.10;;;;;;4918171;29;20070;-72
2022/05/18 12:14:22;;;;;;;3.35;1.08;;;37.30;43.30;;;;;;4910583;29;20042;-72
2022/05/18 12:17:24;;;;;;;4.72;0.98;;;37.20;43.00;;;;;;4919286;29;20028;-72
2022/05/18 12:20:09;;;;;;;5.78;1.30;;;37.40;40.50;;;;;;4912167;29;20047;-72
2022/05/18 12:22:40;;;;;;;3.92;1.05;;;37.00;43.50;;;;;;4919284;29;20028;-73
2022/05/18 12:25:09;;;;;;;4.60;1.50;;;37.00;41.20;;;;;;4917978;29;20036;-72
2022/05/18 12:27:36;;;;;;;6.10;1.45;;;35.60;42.80;;;;;;4919248;29;20028;-72
2022/05/18 12:30:06;;;;;;;4.28;1.40;;;37.20;41.00;;;;;;4919123;29;20028;-72
2022/05/18 12:32:33;;;;;;;4.05;1.00;;;;;;;;;;4919504;29;20133;-72
2022/05/18 12:35:06;;;;;;;7.05;1.40;;;;;;;;;;4919063;29;20047;-72
2022/05/18 12:37:34;;;;;;;7.82;1.50;;;;;;;;;;4919078;29;20032;-73
2022/05/18 12:40:11;;;;;;;6.05;1.30;;;38.30;46.20;;;;;;4918819;29;20028;-73
2022/05/18 12:42:41;;;;;;;3.25;1.10;;;;;;;;;;4919189;29;20084;-75
2022/05/18 12:45:14;;;;;;;4.03;1.30;;;;;;;;;;4919436;29;20028;-73
2022/05/18 12:47:52;;;;;;;5.88;1.10;;;;;;;;;;4917526;29;20429;-74
2022/05/18 12:50:31;;;;;;;9.30;1.30;;;;;;;;;;4924872;29;20035;-72
2022/05/18 12:52:59;;;;;;;3.60;0.90;;;;;;;;;;4927326;29;20107;-74
2022/05/18 12:55:25;;;;;;;6.80;1.10;;;;;;;;;;4926154;29;20445;-72
2022/05/18 12:58:03;;;;;;;6.60;1.00;;;;;;;;;;4927729;29;20472;-73
2022/05/18 13:00:30;;;;;;;3.92;0.90;;;;;;;;;;4926407;29;20483;-73
2022/05/18 13:03:01;;;;;;;7.82;1.17;;;;;;;;;;4926104;29;20082;-74
2022/05/18 13:05:29;;;;;;;4.35;1.10;;;;;;;;;;4925829;29;20028;-74
2022/05/18 13:08:00;;;;;;;3.92;1.48;;;;;;;;;;4927439;29;20117;-72
2022/05/18 13:10:35;;;;;;;5.40;1.33;;;39.50;39.70;;;;;;4926656;29;20028;-73
2022/05/18 13:13:33;;;;;;;6.75;1.30;;;40.20;35.80;;;;;;4927581;29;20492;-73
2022/05/18 13:16:00;;;;;;;4.55;1.00;;;;;;;;;;4926149;29;20036;-72
2022/05/18 13:18:31;;;;;;;5.68;2.45;;;41.20;37.70;;;;;;4923647;29;20383;-72
2022/05/18 13:21:06;;;;;;;4.07;1.25;;;42.00;35.70;;;;;;4918239;29;20029;-73
2022/05/18 13:23:32;;;;;;;3.13;1.05;;;42.30;34.10;;;;;;4926514;29;20078;-70
2022/05/18 13:26:25;;;;;;;2.75;1.50;;;42.60;34.40;;;;;;4923165;29;20039;-70
2022/05/18 13:28:53;;;;;;;4.63;1.38;;;43.00;33.80;;;;;;4936912;29;20027;-69
2022/05/18 13:31:19;;;;;;;7.95;1.17;;;;;;;;;;4934760;29;20389;-69
2022/05/18 13:33:51;;;;;;;5.57;1.10;;;43.40;33.50;;;;;;4925462;29;20135;-69
2022/05/18 13:36:49;;;;;;;5.28;0.93;;;43.90;33.40;;;;;;4917505;29;20032;-67
2022/05/18 13:39:29;;;;;;;2.80;1.10;;;43.00;32.80;;;;;;4932028;29;20071;-69
2022/05/18 13:41:56;;;;;;;2.42;0.90;;;43.00;32.70;;;;;;4917388;29;20034;-67
2022/05/18 13:44:24;;;;;;;2.72;0.90;;;43.90;40.40;;;;;;4917015;29;20367;-66
2022/05/18 13:46:54;;;;;;;1.60;1.02;;;44.20;31.20;;;;;;4917074;29;20445;-69
2022/05/18 13:49:24;;;;;;;1.73;0.70;;;43.20;31.20;;;;;;4917148;29;20051;-68